Time;durP1;ratioP1;P1;durP2;ratioP2;P2;SDS_P1;SDS_P2;PMS_P1;PMS_P2;Temp;Humidity;BMP_temperature;BMP_pressure;BME280_temperature;BME280_humidity;BME280_pressure;Samples;Min_cycle;Max_cycle;Signal;HPM_P1;HPM_P2
2023/06/02 00:00:10;;;;;;;;;;;;;;;;;;137591;1273;22784;-80
2023/06/02 00:03:33;;;;;;;;;;;;;;;;;;137676;1273;22332;-80
2023/06/02 00:06:37;;;;;;;;;;;;;;;;;;137609;1273;22296;-80
2023/06/02 00:09:39;;;;;;;;;;;;;;;;;;137698;1273;22368;-80
2023/06/02 00:12:42;;;;;;;;;;;;;;;;;;137686;1273;22184;-79
2023/06/02 00:15:44;;;;;;;;;;;;;;;;;;137628;1273;22255;-79
2023/06/02 00:18:47;;;;;;;;;;;;;;;;;;137542;1273;22406;-79
2023/06/02 00:21:51;;;;;;;;;;;;;;;;;;137562;1273;22355;-80
2023/06/02 00:24:53;;;;;;;;;;;;;;;;;;137566;1273;22329;-80
2023/06/02 00:27:56;;;;;;;;;;;;;;;;;;137589;1273;22260;-80
2023/06/02 00:30:58;;;;;;;;;;;;;;;;;;137627;1273;22194;-80
2023/06/02 00:34:01;;;;;;;;;;;;;;;;;;137646;1273;22364;-80
2023/06/02 00:37:03;;;;;;;;;;;;;;;;;;137644;1273;22199;-80
2023/06/02 00:40:06;;;;;;;;;;;;;;;;;;137520;1273;22253;-80
2023/06/02 00:43:09;;;;;;;;;;;;;;;;;;137608;1273;22234;-80
2023/06/02 00:46:14;;;;;;;;;;;;;;;;;;137599;1273;22767;-80
2023/06/02 00:49:16;;;;;;;;;;;;;;;;;;137653;1270;22215;-80
2023/06/02 00:52:19;;;;;;;;;;;;;;;;;;137667;1273;22511;-80
2023/06/02 00:55:21;;;;;;;;;;;;;;;;;;137684;1270;22208;-80
2023/06/02 00:58:24;;;;;;;;;;;;;;;;;;137663;1273;22260;-81
2023/06/02 01:01:29;;;;;;;;;;;;;;;;;;137674;1273;22278;-79
2023/06/02 01:04:31;;;;;;;;;;;;;;;;;;137668;1273;22216;-80
2023/06/02 01:07:33;;;;;;;;;;;;;;;;;;137644;1273;22258;-80
2023/06/02 01:10:36;;;;;;;;;;;;;;;;;;137601;1273;22560;-79
2023/06/02 01:13:38;;;;;;;;;;;;;;;;;;137592;1273;22161;-81
2023/06/02 01:16:44;;;;;;;;;;;;;;;;;;137646;1273;22765;-80
2023/06/02 01:19:49;;;;;;;;;;;;;;;;;;137589;1273;22249;-80
2023/06/02 01:22:53;;;;;;;;;;;;;;;;;;137594;1273;22418;-80
2023/06/02 01:25:57;;;;;;;;;;;;;;;;;;137612;1273;22230;-80
2023/06/02 01:29:00;;;;;;;;;;;;;;;;;;137585;1273;22800;-80
2023/06/02 01:32:02;;;;;;;;;;;;;;;;;;137639;1273;22380;-81
2023/06/02 01:35:05;;;;;;;;;;;;;;;;;;137626;1273;22250;-80
2023/06/02 01:38:07;;;;;;;;;;;;;;;;;;137636;1273;22703;-81
2023/06/02 01:41:10;;;;;;;;;;;;;;;;;;137621;1273;22298;-80
2023/06/02 01:44:12;;;;;;;;;;;;;;;;;;137621;1273;22252;-78
2023/06/02 01:47:15;;;;;;;;;;;;;;;;;;137643;1273;22662;-79
2023/06/02 01:50:17;;;;;;;;;;;;;;;;;;137618;1273;22305;-79
2023/06/02 01:53:20;;;;;;;;;;;;;;;;;;137601;1273;22955;-79
2023/06/02 01:56:22;;;;;;;;;;;;;;;;;;137596;1273;22258;-79
2023/06/02 01:59:25;;;;;;;;;;;;;;;;;;137601;1273;22200;-79
2023/06/02 02:02:28;;;;;;;;;;;;;;;;;;137610;1273;22825;-80
2023/06/02 02:05:30;;;;;;;;;;;;;;;;;;137617;1273;22317;-79
2023/06/02 02:08:32;;;;;;;;;;;;;;;;;;137668;1273;22253;-79
2023/06/02 02:11:35;;;;;;;;;;;;;;;;;;137586;1273;22258;-81
2023/06/02 02:14:38;;;;;;;;;;;;;;;;;;137578;1273;22168;-83
2023/06/02 02:17:45;;;;;;;;;;;;;;;;;;137594;1270;22268;-81
2023/06/02 02:20:47;;;;;;;;;;;;;;;;;;137641;1273;22317;-81
2023/06/02 02:23:50;;;;;;;;;;;;;;;;;;137618;1273;22220;-80
2023/06/02 02:26:52;;;;;;;;;;;;;;;;;;137578;1273;22356;-81
2023/06/02 02:29:55;;;;;;;;;;;;;;;;;;137586;1273;22246;-81
2023/06/02 02:32:57;;;;;;;;;;;;;;;;;;137581;1273;22395;-80
2023/06/02 02:36:00;;;;;;;;;;;;;;;;;;137593;1273;22255;-80
2023/06/02 02:39:03;;;;;;;;;;;;;;;;;;137611;1273;22746;-82
2023/06/02 02:42:05;;;;;;;;;;;;;;;;;;137609;1273;22286;-81
2023/06/02 02:45:08;;;;;;;;;;;;;;;;;;137641;1273;22279;-81
2023/06/02 02:48:10;;;;;;;;;;;;;;;;;;137621;1273;22696;-82
2023/06/02 02:51:13;;;;;;;;;;;;;;;;;;137637;1273;22438;-81
2023/06/02 02:54:17;;;;;;;;;;;;;;;;;;137617;1269;22196;-82
2023/06/02 02:57:22;;;;;;;;;;;;;;;;;;137634;1273;22294;-82
2023/06/02 03:00:25;;;;;;;;;;;;;;;;;;137643;1273;22286;-82
2023/06/02 03:03:28;;;;;;;;;;;;;;;;;;137638;1273;22385;-79
2023/06/02 03:06:31;;;;;;;;;;;;;;;;;;137626;1273;22603;-82
2023/06/02 03:09:34;;;;;;;;;;;;;;;;;;137622;1273;22670;-82
2023/06/02 03:12:36;;;;;;;;;;;;;;;;;;137643;1273;22315;-82
2023/06/02 03:15:38;;;;;;;;;;;;;;;;;;137643;1273;22278;-82
2023/06/02 03:18:41;;;;;;;;;;;;;;;;;;137606;1273;23154;-82
2023/06/02 03:21:44;;;;;;;;;;;;;;;;;;137653;1273;22222;-82
2023/06/02 03:24:47;;;;;;;;;;;;;;;;;;137615;1273;22244;-82
2023/06/02 03:27:49;;;;;;;;;;;;;;;;;;137610;1273;22273;-82
2023/06/02 03:30:51;;;;;;;;;;;;;;;;;;137588;1273;22259;-81
2023/06/02 03:33:54;;;;;;;;;;;;;;;;;;137613;1273;22344;-82
2023/06/02 03:37:01;;;;;;;;;;;;;;;;;;137601;1273;22242;-82
2023/06/02 03:40:05;;;;;;;;;;;;;;;;;;137579;1273;22183;-81
2023/06/02 03:43:08;;;;;;;;;;;;;;;;;;137647;1273;22703;-81
2023/06/02 03:46:11;;;;;;;;;;;;;;;;;;137635;1273;22129;-82
2023/06/02 03:49:13;;;;;;;;;;;;;;;;;;137560;1273;22365;-81
2023/06/02 03:52:16;;;;;;;;;;;;;;;;;;137607;1273;22403;-79
2023/06/02 03:55:19;;;;;;;;;;;;;;;;;;137618;1273;22665;-84
2023/06/02 03:58:22;;;;;;;;;;;;;;;;;;137657;1273;22265;-81
2023/06/02 04:01:24;;;;;;;;;;;;;;;;;;137650;1273;22439;-82
2023/06/02 04:04:27;;;;;;;;;;;;;;;;;;137727;1273;22221;-82
2023/06/02 04:07:29;;;;;;;;;;;;;;;;;;137736;1273;22222;-81
2023/06/02 04:10:35;;;;;;;;;;;;;;;;;;137674;1273;22215;-84
2023/06/02 04:13:37;;;;;;;;;;;;;;;;;;137712;1273;22368;-82
2023/06/02 04:16:40;;;;;;;;;;;;;;;;;;137674;1273;22284;-81
2023/06/02 04:19:42;;;;;;;;;;;;;;;;;;137538;1273;22103;-82
2023/06/02 04:22:45;;;;;;;;;;;;;;;;;;137571;1273;22166;-83
2023/06/02 04:25:47;;;;;;;;;;;;;;;;;;137531;1273;22221;-82
2023/06/02 04:28:51;;;;;;;;;;;;;;;;;;137558;1273;22143;-80
2023/06/02 04:31:53;;;;;;;;;;;;;;;;;;137421;1273;22412;-83
2023/06/02 04:34:56;;;;;;;;;;;;;;;;;;137620;1273;22704;-83
2023/06/02 04:37:59;;;;;;;;;;;;;;;;;;137583;1273;22261;-84
2023/06/02 04:41:02;;;;;;;;;;;;;;;;;;137566;1271;22179;-83
2023/06/02 04:44:05;;;;;;;;;;;;;;;;;;137621;1273;22203;-84
2023/06/02 04:47:08;;;;;;;;;;;;;;;;;;137603;1273;22230;-83
2023/06/02 04:50:15;;;;;;;;;;;;;;;;;;137571;1273;22170;-84
2023/06/02 04:53:18;;;;;;;;;;;;;;;;;;137576;1273;22383;-83
2023/06/02 04:56:34;;;;;;;;;;;;;;;;;;137560;1273;22889;-83
2023/06/02 04:59:37;;;;;;;;;;;;;;;;;;137559;1273;22182;-82
2023/06/02 05:02:39;;;;;;;;;;;;;;;;;;137570;1270;22355;-80
2023/06/02 05:05:42;;;;;;;;;;;;;;;;;;137602;1273;22285;-80
2023/06/02 05:08:44;;;;;;;;;;;;;;;;;;137563;1273;22159;-79
2023/06/02 05:11:47;;;;;;;;;;;;;;;;;;137571;1273;22224;-81
2023/06/02 05:14:50;;;;;;;;;;;;;;;;;;137560;1273;22344;-83
2023/06/02 05:20:16;;;;;;;;;;;;;;;;;;132943;1310;544212;-80
2023/06/02 05:23:18;;;;;;;;;;;;;;;;;;135974;1284;22596;-80
2023/06/02 05:26:19;;;;;;;;;;;;;;;;;;136240;1284;23006;-78
2023/06/02 05:29:20;;;;;;;;;;;;;;;;;;136509;1284;22322;-79
2023/06/02 05:32:24;;;;;;;;;;;;;;;;;;136477;1282;179502;-79
2023/06/02 05:35:25;;;;;;;;;;;;;;;;;;136719;1282;22318;-78
2023/06/02 05:38:29;;;;;;;;;;;;;;;;;;136695;1282;22339;-79
2023/06/02 05:41:30;;;;;;;;;;;;;;;;;;136624;1282;22510;-79
2023/06/02 05:44:31;;;;;;;;;;;;;;;;;;136288;1282;22885;-79
2023/06/02 05:47:32;;;;;;;;;;;;;;;;;;136726;1282;22400;-81
2023/06/02 05:50:33;;;;;;;;;;;;;;;;;;136456;1282;22525;-80
2023/06/02 05:53:35;;;;;;;;;;;;;;;;;;136786;1282;22316;-80
2023/06/02 05:56:36;;;;;;;;;;;;;;;;;;136707;1282;23199;-79
2023/06/02 05:59:37;;;;;;;;;;;;;;;;;;136590;1282;22507;-80
2023/06/02 06:02:41;;;;;;;;;;;;;;;;;;136759;1282;22374;-78
2023/06/02 06:05:42;;;;;;;;;;;;;;;;;;136543;1282;22558;-82
2023/06/02 06:08:43;;;;;;;;;;;;;;;;;;136539;1282;22519;-79
2023/06/02 06:11:44;;;;;;;;;;;;;;;;;;137918;1270;22344;-78
2023/06/02 06:14:46;;;;;;;;;;;;;;;;;;137863;1270;22313;-80
2023/06/02 06:17:47;;;;;;;;;;;;;;;;;;137863;1270;22516;-78
2023/06/02 06:20:48;;;;;;;;;;;;;;;;;;137856;1270;22353;-78
2023/06/02 06:23:49;;;;;;;;;;;;;;;;;;137846;1270;22314;-78
2023/06/02 06:26:50;;;;;;;;;;;;;;;;;;137891;1270;22424;-79
2023/06/02 06:29:52;;;;;;;;;;;;;;;;;;137879;1270;22352;-78
2023/06/02 06:32:53;;;;;;;;;;;;;;;;;;137862;1270;22837;-80
2023/06/02 06:35:54;;;;;;;;;;;;;;;;;;137887;1270;22267;-80
2023/06/02 06:38:55;;;;;;;;;;;;;;;;;;137900;1270;22812;-80
2023/06/02 06:41:56;;;;;;;;;;;;;;;;;;137880;1270;22261;-79
2023/06/02 06:44:57;;;;;;;;;;;;;;;;;;137853;1270;22977;-77
2023/06/02 06:47:58;;;;;;;;;;;;;;;;;;137329;1260;22545;-79
2023/06/02 06:51:00;;;;;;;;;;;;;;;;;;137855;1270;22554;-80
2023/06/02 06:54:01;;;;;;;;;;;;;;;;;;137924;1270;22829;-79
2023/06/02 06:57:02;;;;;;;;;;;;;;;;;;137905;1271;22690;-80
2023/06/02 07:00:05;;;;;;;;;;;;;;;;;;137880;1270;22345;-80
2023/06/02 07:03:07;;;;;;;;;;;;;;;;;;137868;1270;22659;-79
2023/06/02 07:06:08;;;;;;;;;;;;;;;;;;137826;1270;22398;-80
2023/06/02 07:09:10;;;;;;;;;;;;;;;;;;137783;1270;22720;-79
2023/06/02 07:12:11;;;;;;;;;;;;;;;;;;137361;1270;22536;-79
2023/06/02 07:15:12;;;;;;;;;;;;;;;;;;137812;1270;22493;-79
2023/06/02 07:18:13;;;;;;;;;;;;;;;;;;137247;1263;22488;-79
2023/06/02 07:21:15;;;;;;;;;;;;;;;;;;137024;1270;22589;-81
2023/06/02 07:24:16;;;;;;;;;;;;;;;;;;137866;1270;22276;-79
2023/06/02 07:27:17;;;;;;;;;;;;;;;;;;137821;1270;22320;-80
2023/06/02 07:30:18;;;;;;;;;;;;;;;;;;136539;1270;22707;-79
2023/06/02 07:33:19;;;;;;;;;;;;;;;;;;137808;1270;22273;-79
2023/06/02 07:36:21;;;;;;;;;;;;;;;;;;137653;1270;22462;-79
2023/06/02 07:39:22;;;;;;;;;;;;;;;;;;137879;1270;22886;-80
2023/06/02 07:42:23;;;;;;;;;;;;;;;;;;137309;1270;22559;-78
2023/06/02 07:45:24;;;;;;;;;;;;;;;;;;137773;1270;22512;-79
2023/06/02 07:48:25;;;;;;;;;;;;;;;;;;137528;1270;22469;-79
2023/06/02 07:51:26;;;;;;;;;;;;;;;;;;137600;1270;22537;-78
2023/06/02 07:54:27;;;;;;;;;;;;;;;;;;137391;1270;22602;-78
2023/06/02 07:57:29;;;;;;;;;;;;;;;;;;137407;1270;22557;-78
2023/06/02 08:00:30;;;;;;;;;;;;;;;;;;137306;1270;22873;-78
2023/06/02 08:03:31;;;;;;;;;;;;;;;;;;137283;1270;22560;-77
2023/06/02 08:06:33;;;;;;;;;;;;;;;;;;137183;1270;22730;-82
2023/06/02 08:09:36;;;;;;;;;;;;;;;;;;137056;1270;22554;-77
2023/06/02 08:12:37;;;;;;;;;;;;;;;;;;137529;1270;22470;-79
2023/06/02 08:15:38;;;;;;;;;;;;;;;;;;137906;1270;23015;-80
2023/06/02 08:18:39;;;;;;;;;;;;;;;;;;137892;1270;22446;-78
2023/06/02 08:21:41;;;;;;;;;;;;;;;;;;137887;1270;22287;-76
2023/06/02 08:24:44;;;;;;;;;;;;;;;;;;137794;1270;22350;-78
2023/06/02 08:27:45;;;;;;;;;;;;;;;;;;137824;1270;22749;-79
2023/06/02 08:30:46;;;;;;;;;;;;;;;;;;136783;1270;22549;-81
2023/06/02 08:33:47;;;;;;;;;;;;;;;;;;137828;1270;22291;-81
2023/06/02 08:36:50;;;;;;;;;;;;;;;;;;137416;1270;22525;-82
2023/06/02 08:39:51;;;;;;;;;;;;;;;;;;137836;1270;22401;-81
2023/06/02 08:42:52;;;;;;;;;;;;;;;;;;137851;1270;22277;-80
2023/06/02 08:45:53;;;;;;;;;;;;;;;;;;137882;1265;22304;-81
2023/06/02 08:48:55;;;;;;;;;;;;;;;;;;137693;1270;22522;-79
2023/06/02 08:51:56;;;;;;;;;;;;;;;;;;137908;1270;22325;-79
2023/06/02 08:54:58;;;;;;;;;;;;;;;;;;137851;1270;22725;-82
2023/06/02 08:57:59;;;;;;;;;;;;;;;;;;137878;1270;22293;-80
2023/06/02 09:01:00;;;;;;;;;;;;;;;;;;137860;1270;22314;-80
2023/06/02 09:04:01;;;;;;;;;;;;;;;;;;137745;1270;22639;-83
2023/06/02 09:07:02;;;;;;;;;;;;;;;;;;137488;1270;22502;-78
2023/06/02 09:10:04;;;;;;;;;;;;;;;;;;137879;1270;22336;-81
2023/06/02 09:13:05;;;;;;;;;;;;;;;;;;137485;1270;22613;-82
2023/06/02 09:16:06;;;;;;;;;;;;;;;;;;137561;1270;22512;-80
2023/06/02 09:19:07;;;;;;;;;;;;;;;;;;137846;1270;22368;-80
2023/06/02 09:22:08;;;;;;;;;;;;;;;;;;137821;1270;22322;-81
2023/06/02 09:25:09;;;;;;;;;;;;;;;;;;137854;1270;22323;-82
2023/06/02 09:28:11;;;;;;;;;;;;;;;;;;137876;1270;22267;-82
2023/06/02 09:31:13;;;;;;;;;;;;;;;;;;137862;1270;22776;-81
2023/06/02 09:34:14;;;;;;;;;;;;;;;;;;137837;1270;22407;-82
2023/06/02 09:37:15;;;;;;;;;;;;;;;;;;137824;1270;22379;-81
2023/06/02 09:40:16;;;;;;;;;;;;;;;;;;137847;1270;22320;-81
2023/06/02 09:43:19;;;;;;;;;;;;;;;;;;137837;1270;22332;-82
2023/06/02 09:46:20;;;;;;;;;;;;;;;;;;137856;1270;22279;-81
2023/06/02 09:49:21;;;;;;;;;;;;;;;;;;137636;1270;22540;-83
2023/06/02 09:52:22;;;;;;;;;;;;;;;;;;137785;1270;22511;-82
2023/06/02 09:55:23;;;;;;;;;;;;;;;;;;137868;1270;22359;-82
2023/06/02 09:58:25;;;;;;;;;;;;;;;;;;137872;1270;22353;-81
2023/06/02 10:01:26;;;;;;;;;;;;;;;;;;137836;1271;22301;-83
2023/06/02 10:04:27;;;;;;;;;;;;;;;;;;137797;1271;22313;-82
2023/06/02 10:07:28;;;;;;;;;;;;;;;;;;137823;1270;22395;-83
2023/06/02 10:10:29;;;;;;;;;;;;;;;;;;137833;1270;22284;-83
2023/06/02 10:13:32;;;;;;;;;;;;;;;;;;137887;1270;22315;-83
2023/06/02 10:16:33;;;;;;;;;;;;;;;;;;137868;1270;22348;-82
2023/06/02 10:19:34;;;;;;;;;;;;;;;;;;137931;1267;22371;-82
2023/06/02 10:22:35;;;;;;;;;;;;;;;;;;137875;1270;22815;-82
2023/06/02 10:25:36;;;;;;;;;;;;;;;;;;137701;1270;23120;-81
2023/06/02 10:28:37;;;;;;;;;;;;;;;;;;137975;1270;22336;-82
2023/06/02 10:31:38;;;;;;;;;;;;;;;;;;137890;1270;22313;-83
2023/06/02 10:34:40;;;;;;;;;;;;;;;;;;137924;1270;22288;-82
2023/06/02 10:37:43;;;;;;;;;;;;;;;;;;137839;1270;22677;-85
2023/06/02 10:40:46;;;;;;;;;;;;;;;;;;137829;1270;22495;-86
2023/06/02 10:43:50;;;;;;;;;;;;;;;;;;137783;1270;22510;-86
2023/06/02 10:46:54;;;;;;;;;;;;;;;;;;137811;1270;22543;-86
2023/06/02 10:50:03;;;;;;;;;;;;;;;;;;137901;1270;22825;-85
2023/06/02 10:53:10;;;;;;;;;;;;;;;;;;137880;1270;22276;-82
2023/06/02 10:56:11;;;;;;;;;;;;;;;;;;137450;1270;22530;-83
2023/06/02 10:59:12;;;;;;;;;;;;;;;;;;137820;1270;22531;-83
2023/06/02 11:02:13;;;;;;;;;;;;;;;;;;137714;1270;22495;-84
2023/06/02 11:05:15;;;;;;;;;;;;;;;;;;137654;1270;22540;-83
2023/06/02 11:08:18;;;;;;;;;;;;;;;;;;137939;1270;22336;-83
2023/06/02 11:11:19;;;;;;;;;;;;;;;;;;137718;1270;22862;-81
2023/06/02 11:14:21;;;;;;;;;;;;;;;;;;137896;1262;22760;-82
2023/06/02 11:17:22;;;;;;;;;;;;;;;;;;137894;1270;22820;-82
2023/06/02 11:20:23;;;;;;;;;;;;;;;;;;137920;1270;22655;-83
2023/06/02 11:23:25;;;;;;;;;;;;;;;;;;137899;1270;22411;-84
2023/06/02 11:26:26;;;;;;;;;;;;;;;;;;137880;1265;22324;-83
2023/06/02 11:29:27;;;;;;;;;;;;;;;;;;137856;1270;22384;-82
2023/06/02 11:32:29;;;;;;;;;;;;;;;;;;137817;1270;22375;-81
2023/06/02 11:35:30;;;;;;;;;;;;;;;;;;137826;1270;22273;-82
2023/06/02 11:38:32;;;;;;;;;;;;;;;;;;137766;1270;22483;-82
2023/06/02 11:41:33;;;;;;;;;;;;;;;;;;137327;1270;22519;-82
2023/06/02 11:44:37;;;;;;;;;;;;;;;;;;137681;1270;22833;-82
2023/06/02 11:47:38;;;;;;;;;;;;;;;;;;137246;1270;22527;-83
2023/06/02 11:50:39;;;;;;;;;;;;;;;;;;137852;1270;22405;-82
2023/06/02 11:53:45;;;;;;;;;;;;;;;;;;137814;1270;22760;-83
2023/06/02 11:56:49;;;;;;;;;;;;;;;;;;137836;1270;22302;-83
2023/06/02 11:59:53;;;;;;;;;;;;;;;;;;137174;1270;22486;-82
2023/06/02 12:02:58;;;;;;;;;;;;;;;;;;137776;1259;22555;-83
2023/06/02 12:06:01;;;;;;;;;;;;;;;;;;137820;1266;22376;-83
2023/06/02 12:09:11;;;;;;;;;;;;;;;;;;137875;1270;22301;-85
2023/06/02 12:12:20;;;;;;;;;;;;;;;;;;137840;1270;22808;-81
2023/06/02 12:15:27;;;;;;;;;;;;;;;;;;137768;1270;22382;-80
2023/06/02 12:18:29;;;;;;;;;;;;;;;;;;137829;1267;22370;-83
2023/06/02 12:21:31;;;;;;;;;;;;;;;;;;137746;1271;22287;-82
2023/06/02 12:24:33;;;;;;;;;;;;;;;;;;137655;1270;22375;-81
2023/06/02 12:27:35;;;;;;;;;;;;;;;;;;137704;1270;22348;-83
2023/06/02 12:30:36;;;;;;;;;;;;;;;;;;137729;1270;22389;-83
2023/06/02 12:33:38;;;;;;;;;;;;;;;;;;137726;1270;22333;-83
2023/06/02 12:36:39;;;;;;;;;;;;;;;;;;137755;1270;22390;-83
2023/06/02 12:39:40;;;;;;;;;;;;;;;;;;137809;1270;22267;-83
2023/06/02 12:42:41;;;;;;;;;;;;;;;;;;137823;1271;22385;-83
2023/06/02 12:45:42;;;;;;;;;;;;;;;;;;137740;1270;22540;-82
2023/06/02 12:48:43;;;;;;;;;;;;;;;;;;137847;1270;22377;-83
2023/06/02 12:51:45;;;;;;;;;;;;;;;;;;137794;1271;22342;-83
2023/06/02 12:54:46;;;;;;;;;;;;;;;;;;137823;1270;22294;-84
2023/06/02 12:57:47;;;;;;;;;;;;;;;;;;137635;1270;23417;-81
2023/06/02 13:00:48;;;;;;;;;;;;;;;;;;137869;1270;22925;-82
2023/06/02 13:03:59;;;;;;;;;;;;;;;;;;137632;1270;22497;-83
2023/06/02 13:07:01;;;;;;;;;;;;;;;;;;137832;1270;22302;-83
2023/06/02 13:10:03;;;;;;;;;;;;;;;;;;137852;1270;22283;-83
2023/06/02 13:13:04;;;;;;;;;;;;;;;;;;137816;1271;22330;-85
2023/06/02 13:16:05;;;;;;;;;;;;;;;;;;137772;1271;22520;-85
2023/06/02 13:19:09;;;;;;;;;;;;;;;;;;137844;1270;22287;-83
2023/06/02 13:22:10;;;;;;;;;;;;;;;;;;137790;1270;22312;-84
2023/06/02 13:25:12;;;;;;;;;;;;;;;;;;137856;1271;22285;-83
2023/06/02 13:28:13;;;;;;;;;;;;;;;;;;137851;1271;22395;-82
2023/06/02 13:31:14;;;;;;;;;;;;;;;;;;137886;1271;22329;-82
2023/06/02 13:34:15;;;;;;;;;;;;;;;;;;137921;1271;22296;-81
2023/06/02 13:37:16;;;;;;;;;;;;;;;;;;137571;1271;23981;-82
2023/06/02 13:40:17;;;;;;;;;;;;;;;;;;137751;1268;22476;-82
2023/06/02 13:43:18;;;;;;;;;;;;;;;;;;137497;1270;23063;-86
2023/06/02 13:46:20;;;;;;;;;;;;;;;;;;137717;1271;22961;-83
2023/06/02 13:49:22;;;;;;;;;;;;;;;;;;137934;1270;22548;-82
2023/06/02 13:52:23;;;;;;;;;;;;;;;;;;137521;1270;22501;-83
2023/06/02 13:55:24;;;;;;;;;;;;;;;;;;137621;1270;24200;-81
2023/06/02 13:58:28;;;;;;;;;;;;;;;;;;137893;1270;23050;-82
2023/06/02 14:01:30;;;;;;;;;;;;;;;;;;137594;1270;22541;-84
2023/06/02 14:04:31;;;;;;;;;;;;;;;;;;137555;1265;22506;-81
2023/06/02 14:07:32;;;;;;;;;;;;;;;;;;137922;1271;23066;-81
2023/06/02 14:10:34;;;;;;;;;;;;;;;;;;137634;1270;22528;-81
2023/06/02 14:13:35;;;;;;;;;;;;;;;;;;137527;1270;22534;-84
2023/06/02 14:16:36;;;;;;;;;;;;;;;;;;137674;1271;22593;-83
2023/06/02 14:19:37;;;;;;;;;;;;;;;;;;137692;1270;22478;-82
2023/06/02 14:22:38;;;;;;;;;;;;;;;;;;137911;1270;22289;-80
2023/06/02 14:25:39;;;;;;;;;;;;;;;;;;137881;1270;22771;-81
2023/06/02 14:28:40;;;;;;;;;;;;;;;;;;138044;1271;22396;-82
2023/06/02 14:31:41;;;;;;;;;;;;;;;;;;137864;1271;22811;-82
2023/06/02 15:05:48;;;;;;;;;;;;;;;;;;133218;1308;544375;-81
2023/06/02 15:08:51;;;;;;;;;;;;;;;;;;135912;1285;23444;-82
2023/06/02 15:11:53;;;;;;;;;;;;;;;;;;136327;1285;22537;-82
2023/06/02 15:14:56;;;;;;;;;;;;;;;;;;136324;1285;22504;-83
2023/06/02 15:18:01;;;;;;;;;;;;;;;;;;135848;1283;177471;-83
2023/06/02 15:21:04;;;;;;;;;;;;;;;;;;136201;1283;22523;-80
2023/06/02 15:24:06;;;;;;;;;;;;;;;;;;136723;1283;22499;-83
2023/06/02 15:27:09;;;;;;;;;;;;;;;;;;136326;1267;22516;-80
2023/06/02 15:30:11;;;;;;;;;;;;;;;;;;135818;1283;22511;-81
2023/06/02 15:33:14;;;;;;;;;;;;;;;;;;136702;1283;22387;-82
2023/06/02 15:36:16;;;;;;;;;;;;;;;;;;136241;1283;22604;-82
2023/06/02 15:39:19;;;;;;;;;;;;;;;;;;136489;1283;22532;-81
2023/06/02 15:42:21;;;;;;;;;;;;;;;;;;136484;1279;22518;-81
2023/06/02 15:45:24;;;;;;;;;;;;;;;;;;136064;1279;22554;-82
2023/06/02 15:48:26;;;;;;;;;;;;;;;;;;136542;1279;22895;-82
2023/06/02 15:51:29;;;;;;;;;;;;;;;;;;136471;1279;22610;-82
2023/06/02 15:54:31;;;;;;;;;;;;;;;;;;136992;1273;22547;-82
2023/06/02 15:57:35;;;;;;;;;;;;;;;;;;136505;1279;22532;-82
2023/06/02 16:00:37;;;;;;;;;;;;;;;;;;136533;1280;22906;-82
2023/06/02 16:03:39;;;;;;;;;;;;;;;;;;137316;1276;22521;-83
2023/06/02 16:06:42;;;;;;;;;;;;;;;;;;136910;1276;22480;-81
2023/06/02 16:09:44;;;;;;;;;;;;;;;;;;137101;1276;25303;-81
2023/06/02 16:12:47;;;;;;;;;;;;;;;;;;136719;1276;22918;-81
2023/06/02 16:15:51;;;;;;;;;;;;;;;;;;137160;1276;22518;-81
2023/06/02 16:18:54;;;;;;;;;;;;;;;;;;137230;1272;22302;-80
2023/06/02 16:21:56;;;;;;;;;;;;;;;;;;137223;1277;22500;-81
2023/06/02 16:24:59;;;;;;;;;;;;;;;;;;137237;1277;22509;-82
2023/06/02 16:28:01;;;;;;;;;;;;;;;;;;137314;1277;22315;-81
2023/06/02 16:31:04;;;;;;;;;;;;;;;;;;137189;1276;22628;-81
2023/06/02 16:34:06;;;;;;;;;;;;;;;;;;137190;1277;22530;-81
2023/06/02 16:37:09;;;;;;;;;;;;;;;;;;137210;1277;22544;-82
2023/06/02 16:40:14;;;;;;;;;;;;;;;;;;137234;1269;22547;-82
2023/06/02 16:43:18;;;;;;;;;;;;;;;;;;137330;1276;23077;-81
2023/06/02 16:46:23;;;;;;;;;;;;;;;;;;137326;1276;22483;-81
2023/06/02 16:49:25;;;;;;;;;;;;;;;;;;137229;1276;22624;-83
2023/06/02 16:52:28;;;;;;;;;;;;;;;;;;137385;1276;22476;-82
2023/06/02 16:55:30;;;;;;;;;;;;;;;;;;137275;1276;22975;-82
2023/06/02 16:58:33;;;;;;;;;;;;;;;;;;137359;1276;22492;-82
2023/06/02 17:01:36;;;;;;;;;;;;;;;;;;137315;1276;22512;-82
2023/06/02 17:04:38;;;;;;;;;;;;;;;;;;137335;1275;22560;-82
2023/06/02 17:07:41;;;;;;;;;;;;;;;;;;137870;1271;22492;-82
2023/06/02 17:10:43;;;;;;;;;;;;;;;;;;137731;1271;23135;-81
2023/06/02 17:13:51;;;;;;;;;;;;;;;;;;137816;1271;22335;-82
2023/06/02 17:16:54;;;;;;;;;;;;;;;;;;137583;1271;22552;-84
2023/06/02 17:19:57;;;;;;;;;;;;;;;;;;137614;1271;22502;-81
2023/06/02 17:22:59;;;;;;;;;;;;;;;;;;137812;1271;22265;-81
2023/06/02 17:26:03;;;;;;;;;;;;;;;;;;137769;1271;22906;-81
2023/06/02 17:29:06;;;;;;;;;;;;;;;;;;137822;1271;22384;-80
2023/06/02 17:32:13;;;;;;;;;;;;;;;;;;137963;1271;22813;-80
2023/06/02 17:35:16;;;;;;;;;;;;;;;;;;137833;1269;22406;-81
2023/06/02 17:38:18;;;;;;;;;;;;;;;;;;137797;1271;22267;-81
2023/06/02 17:41:21;;;;;;;;;;;;;;;;;;137802;1267;22598;-81
2023/06/02 17:44:23;;;;;;;;;;;;;;;;;;137792;1271;22331;-81
2023/06/02 17:47:28;;;;;;;;;;;;;;;;;;137786;1271;22809;-81
2023/06/02 17:50:30;;;;;;;;;;;;;;;;;;137803;1271;22956;-81
2023/06/02 17:53:33;;;;;;;;;;;;;;;;;;137814;1271;22564;-82
2023/06/02 17:56:36;;;;;;;;;;;;;;;;;;137754;1271;22502;-82
2023/06/02 17:59:42;;;;;;;;;;;;;;;;;;137697;1268;22534;-82
2023/06/02 18:02:45;;;;;;;;;;;;;;;;;;137711;1271;22517;-82
2023/06/02 18:05:47;;;;;;;;;;;;;;;;;;137712;1271;22526;-81
2023/06/02 18:08:50;;;;;;;;;;;;;;;;;;137760;1271;22938;-81
2023/06/02 18:11:52;;;;;;;;;;;;;;;;;;137836;1271;22347;-82
2023/06/02 18:14:55;;;;;;;;;;;;;;;;;;137846;1271;22274;-82
2023/06/02 18:17:57;;;;;;;;;;;;;;;;;;137773;1267;22284;-82
2023/06/02 18:21:00;;;;;;;;;;;;;;;;;;137826;1271;22327;-82
2023/06/02 18:24:02;;;;;;;;;;;;;;;;;;137820;1271;22302;-82
2023/06/02 18:27:05;;;;;;;;;;;;;;;;;;137789;1271;22342;-81
2023/06/02 18:30:07;;;;;;;;;;;;;;;;;;137841;1271;22307;-82
2023/06/02 18:33:10;;;;;;;;;;;;;;;;;;137819;1271;22379;-81
2023/06/02 18:36:12;;;;;;;;;;;;;;;;;;137765;1271;22295;-81
2023/06/02 18:39:15;;;;;;;;;;;;;;;;;;137754;1271;22261;-81
2023/06/02 18:42:17;;;;;;;;;;;;;;;;;;137807;1267;22327;-80
2023/06/02 18:45:20;;;;;;;;;;;;;;;;;;137826;1271;22292;-80
2023/06/02 18:48:22;;;;;;;;;;;;;;;;;;137788;1271;22306;-80
2023/06/02 18:51:26;;;;;;;;;;;;;;;;;;137736;1271;22529;-80
2023/06/02 18:54:28;;;;;;;;;;;;;;;;;;137619;1271;22563;-81
2023/06/02 18:57:31;;;;;;;;;;;;;;;;;;137820;1271;22255;-80
2023/06/02 19:00:33;;;;;;;;;;;;;;;;;;137612;1268;22871;-80
2023/06/02 19:03:36;;;;;;;;;;;;;;;;;;137613;1271;22519;-80
2023/06/02 19:06:39;;;;;;;;;;;;;;;;;;137805;1271;22552;-80
2023/06/02 19:09:41;;;;;;;;;;;;;;;;;;137715;1271;22994;-79
2023/06/02 19:12:44;;;;;;;;;;;;;;;;;;137730;1271;22845;-80
2023/06/02 19:15:46;;;;;;;;;;;;;;;;;;137815;1271;22505;-81
2023/06/02 19:18:49;;;;;;;;;;;;;;;;;;137729;1271;22507;-80
2023/06/02 19:21:51;;;;;;;;;;;;;;;;;;137724;1271;22579;-81
2023/06/02 19:24:54;;;;;;;;;;;;;;;;;;137813;1271;22486;-79
2023/06/02 19:27:56;;;;;;;;;;;;;;;;;;137800;1271;22385;-80
2023/06/02 19:30:59;;;;;;;;;;;;;;;;;;137775;1271;22283;-80
2023/06/02 19:34:04;;;;;;;;;;;;;;;;;;137766;1271;22444;-80
2023/06/02 19:37:06;;;;;;;;;;;;;;;;;;137791;1266;22277;-80
2023/06/02 19:40:09;;;;;;;;;;;;;;;;;;137678;1271;22489;-80
2023/06/02 19:43:11;;;;;;;;;;;;;;;;;;137794;1271;22304;-79
2023/06/02 19:46:14;;;;;;;;;;;;;;;;;;137827;1271;22288;-80
2023/06/02 19:49:17;;;;;;;;;;;;;;;;;;137568;1271;22637;-79
2023/06/02 19:52:19;;;;;;;;;;;;;;;;;;137881;1271;22555;-80
2023/06/02 19:55:22;;;;;;;;;;;;;;;;;;137348;1271;23072;-79
2023/06/02 19:58:25;;;;;;;;;;;;;;;;;;137809;1271;22486;-80
2023/06/02 20:01:27;;;;;;;;;;;;;;;;;;137842;1271;22324;-80
2023/06/02 20:04:30;;;;;;;;;;;;;;;;;;137725;1271;22552;-80
2023/06/02 20:07:32;;;;;;;;;;;;;;;;;;137731;1271;22325;-80
2023/06/02 20:10:35;;;;;;;;;;;;;;;;;;136794;1271;22514;-81
2023/06/02 20:13:37;;;;;;;;;;;;;;;;;;137749;1271;22255;-81
2023/06/02 20:16:40;;;;;;;;;;;;;;;;;;137787;1271;22364;-81
2023/06/02 20:19:42;;;;;;;;;;;;;;;;;;137647;1271;22558;-81
2023/06/02 20:22:45;;;;;;;;;;;;;;;;;;137755;1271;22316;-80
2023/06/02 20:25:47;;;;;;;;;;;;;;;;;;137728;1271;22850;-81
2023/06/02 20:28:50;;;;;;;;;;;;;;;;;;137726;1267;22296;-82
2023/06/02 20:31:52;;;;;;;;;;;;;;;;;;137776;1271;22362;-80
2023/06/02 20:34:55;;;;;;;;;;;;;;;;;;137750;1271;22380;-82
2023/06/02 20:37:58;;;;;;;;;;;;;;;;;;137790;1271;22870;-81
2023/06/02 20:41:01;;;;;;;;;;;;;;;;;;137973;1271;22262;-81
2023/06/02 20:44:03;;;;;;;;;;;;;;;;;;137600;1271;22496;-82
2023/06/02 20:47:07;;;;;;;;;;;;;;;;;;137724;1271;22481;-81
2023/06/02 20:50:10;;;;;;;;;;;;;;;;;;137616;1271;22541;-81
2023/06/02 20:53:16;;;;;;;;;;;;;;;;;;137579;1271;22557;-81
2023/06/02 20:56:19;;;;;;;;;;;;;;;;;;137607;1271;22543;-81